sensor_id;sensor_type;location;lat;lon;timestamp;pressure;altitude;pressure_sealevel;temperature;humidity
21096;BME280;10706;49.036;12.112;2023-05-14T00:01:59;97758.03;;;8.93;94.85
21096;BME280;10706;49.036;12.112;2023-05-14T00:04:24;97763.22;;;8.88;95.03
21096;BME280;10706;49.036;12.112;2023-05-14T00:06:50;97758.41;;;8.97;95.38
21096;BME280;10706;49.036;12.112;2023-05-14T00:09:16;97758.63;;;8.95;94.20
21096;BME280;10706;49.036;12.112;2023-05-14T00:11:42;97755.88;;;9.02;94.33
21096;BME280;10706;49.036;12.112;2023-05-14T00:14:11;97745.53;;;8.93;95.78
21096;BME280;10706;49.036;12.112;2023-05-14T00:16:36;97750.19;;;8.98;95.52
21096;BME280;10706;49.036;12.112;2023-05-14T00:19:02;97746.50;;;8.99;94.92
21096;BME280;10706;49.036;12.112;2023-05-14T00:21:28;97735.56;;;8.89;94.91
21096;BME280;10706;49.036;12.112;2023-05-14T00:23:54;97741.78;;;8.83;95.07
21096;BME280;10706;49.036;12.112;2023-05-14T00:26:19;97746.31;;;8.82;96.00
21096;BME280;10706;49.036;12.112;2023-05-14T00:28:45;97734.28;;;8.91;95.72
21096;BME280;10706;49.036;12.112;2023-05-14T00:31:13;97740.66;;;8.90;94.91
21096;BME280;10706;49.036;12.112;2023-05-14T00:33:39;97742.25;;;8.91;95.22
21096;BME280;10706;49.036;12.112;2023-05-14T00:36:05;97736.72;;;8.93;95.90
21096;BME280;10706;49.036;12.112;2023-05-14T00:38:31;97734.91;;;8.93;95.22
21096;BME280;10706;49.036;12.112;2023-05-14T00:40:56;97744.84;;;8.98;95.19
21096;BME280;10706;49.036;12.112;2023-05-14T00:43:22;97738.78;;;9.09;94.68
21096;BME280;10706;49.036;12.112;2023-05-14T00:45:51;97741.63;;;9.26;93.89
21096;BME280;10706;49.036;12.112;2023-05-14T00:48:19;97732.69;;;9.21;93.45
21096;BME280;10706;49.036;12.112;2023-05-14T00:50:45;97734.69;;;9.25;94.32
21096;BME280;10706;49.036;12.112;2023-05-14T00:53:11;97733.63;;;9.26;94.26
21096;BME280;10706;49.036;12.112;2023-05-14T00:55:37;97733.75;;;9.31;93.14
21096;BME280;10706;49.036;12.112;2023-05-14T00:58:11;97729.69;;;9.29;92.70
21096;BME280;10706;49.036;12.112;2023-05-14T01:00:38;97730.41;;;9.36;93.51
21096;BME280;10706;49.036;12.112;2023-05-14T01:03:04;97729.03;;;9.45;93.54
21096;BME280;10706;49.036;12.112;2023-05-14T01:06:09;97732.50;;;9.46;92.95
21096;BME280;10706;49.036;12.112;2023-05-14T01:09:13;97726.06;;;9.53;92.34
21096;BME280;10706;49.036;12.112;2023-05-14T01:12:16;97728.69;;;9.42;92.96
21096;BME280;10706;49.036;12.112;2023-05-14T01:15:07;97722.19;;;9.38;93.16
21096;BME280;10706;49.036;12.112;2023-05-14T01:17:41;97722.19;;;9.38;92.94
21096;BME280;10706;49.036;12.112;2023-05-14T01:20:08;97728.22;;;9.45;91.92
21096;BME280;10706;49.036;12.112;2023-05-14T01:22:34;97716.53;;;9.46;92.33
21096;BME280;10706;49.036;12.112;2023-05-14T01:25:00;97723.84;;;9.50;92.10
21096;BME280;10706;49.036;12.112;2023-05-14T01:27:54;97714.78;;;9.51;91.78
21096;BME280;10706;49.036;12.112;2023-05-14T01:30:35;97714.94;;;9.57;92.43
21096;BME280;10706;49.036;12.112;2023-05-14T01:33:05;97712.25;;;9.57;91.47
21096;BME280;10706;49.036;12.112;2023-05-14T01:35:35;97712.03;;;9.58;91.80
21096;BME280;10706;49.036;12.112;2023-05-14T01:38:04;97710.19;;;9.59;91.73
21096;BME280;10706;49.036;12.112;2023-05-14T01:40:31;97710.53;;;9.62;92.13
21096;BME280;10706;49.036;12.112;2023-05-14T01:42:58;97709.38;;;9.58;92.48
21096;BME280;10706;49.036;12.112;2023-05-14T01:45:25;97709.72;;;9.62;92.16
21096;BME280;10706;49.036;12.112;2023-05-14T01:47:52;97716.81;;;9.68;91.10
21096;BME280;10706;49.036;12.112;2023-05-14T01:50:17;97712.75;;;9.65;91.50
21096;BME280;10706;49.036;12.112;2023-05-14T01:52:43;97712.88;;;9.70;91.60
21096;BME280;10706;49.036;12.112;2023-05-14T01:55:09;97706.94;;;9.68;91.41
21096;BME280;10706;49.036;12.112;2023-05-14T01:57:35;97704.88;;;9.70;92.22
21096;BME280;10706;49.036;12.112;2023-05-14T02:00:01;97706.41;;;9.78;91.67
21096;BME280;10706;49.036;12.112;2023-05-14T02:02:28;97701.50;;;9.87;90.65
21096;BME280;10706;49.036;12.112;2023-05-14T02:04:54;97702.22;;;9.82;91.20
21096;BME280;10706;49.036;12.112;2023-05-14T02:07:19;97698.75;;;9.82;91.81
21096;BME280;10706;49.036;12.112;2023-05-14T02:09:45;97699.44;;;9.77;91.11
21096;BME280;10706;49.036;12.112;2023-05-14T02:12:11;97697.69;;;9.83;90.83
21096;BME280;10706;49.036;12.112;2023-05-14T02:14:37;97694.78;;;9.84;91.00
21096;BME280;10706;49.036;12.112;2023-05-14T02:17:03;97697.56;;;9.78;90.90
21096;BME280;10706;49.036;12.112;2023-05-14T02:19:29;97691.41;;;9.65;91.42
21096;BME280;10706;49.036;12.112;2023-05-14T02:21:54;97695.13;;;9.64;92.44
21096;BME280;10706;49.036;12.112;2023-05-14T02:24:20;97702.19;;;9.59;91.97
21096;BME280;10706;49.036;12.112;2023-05-14T02:26:46;97695.13;;;9.64;91.70
21096;BME280;10706;49.036;12.112;2023-05-14T02:29:12;97693.16;;;9.71;91.80
21096;BME280;10706;49.036;12.112;2023-05-14T02:31:38;97693.50;;;9.63;90.95
21096;BME280;10706;49.036;12.112;2023-05-14T02:34:04;97688.28;;;9.57;91.75
21096;BME280;10706;49.036;12.112;2023-05-14T02:36:31;97687.47;;;9.68;91.62
21096;BME280;10706;49.036;12.112;2023-05-14T02:38:58;97690.59;;;9.53;91.71
21096;BME280;10706;49.036;12.112;2023-05-14T02:41:25;97681.84;;;9.34;92.43
21096;BME280;10706;49.036;12.112;2023-05-14T02:43:52;97681.50;;;9.30;93.08
21096;BME280;10706;49.036;12.112;2023-05-14T02:46:18;97673.72;;;9.17;93.55
21096;BME280;10706;49.036;12.112;2023-05-14T02:48:44;97677.28;;;9.11;94.60
21096;BME280;10706;49.036;12.112;2023-05-14T02:51:10;97677.72;;;9.08;94.04
21096;BME280;10706;49.036;12.112;2023-05-14T02:53:36;97671.00;;;8.93;94.07
21096;BME280;10706;49.036;12.112;2023-05-14T02:56:02;97675.25;;;8.94;94.35
21096;BME280;10706;49.036;12.112;2023-05-14T02:58:28;97664.47;;;8.89;95.48
21096;BME280;10706;49.036;12.112;2023-05-14T03:00:54;97667.72;;;8.91;94.92
21096;BME280;10706;49.036;12.112;2023-05-14T03:03:20;97669.00;;;8.89;95.83
21096;BME280;10706;49.036;12.112;2023-05-14T03:05:45;97667.72;;;8.91;95.39
21096;BME280;10706;49.036;12.112;2023-05-14T03:08:11;97671.78;;;8.94;94.69
21096;BME280;10706;49.036;12.112;2023-05-14T03:10:37;97661.91;;;8.83;95.17
21096;BME280;10706;49.036;12.112;2023-05-14T03:13:03;97664.00;;;8.81;94.78
21096;BME280;10706;49.036;12.112;2023-05-14T03:15:28;97664.38;;;8.66;97.11
21096;BME280;10706;49.036;12.112;2023-05-14T03:17:54;97658.53;;;8.57;96.70
21096;BME280;10706;49.036;12.112;2023-05-14T03:20:22;97659.50;;;8.63;96.81
21096;BME280;10706;49.036;12.112;2023-05-14T03:22:48;97661.13;;;8.64;96.86
21096;BME280;10706;49.036;12.112;2023-05-14T03:25:14;97661.00;;;8.59;97.70
21096;BME280;10706;49.036;12.112;2023-05-14T03:27:40;97660.91;;;8.65;96.76
21096;BME280;10706;49.036;12.112;2023-05-14T03:30:06;97651.66;;;8.68;97.76
21096;BME280;10706;49.036;12.112;2023-05-14T03:32:32;97656.63;;;8.64;97.33
21096;BME280;10706;49.036;12.112;2023-05-14T03:34:58;97655.72;;;8.52;96.96
21096;BME280;10706;49.036;12.112;2023-05-14T03:37:23;97658.72;;;8.44;97.63
21096;BME280;10706;49.036;12.112;2023-05-14T03:39:49;97662.84;;;8.40;98.02
21096;BME280;10706;49.036;12.112;2023-05-14T03:42:15;97661.22;;;8.57;97.48
21096;BME280;10706;49.036;12.112;2023-05-14T03:44:41;97667.22;;;8.52;97.48
21096;BME280;10706;49.036;12.112;2023-05-14T03:47:06;97663.03;;;8.38;99.00
21096;BME280;10706;49.036;12.112;2023-05-14T03:49:32;97664.53;;;8.34;98.77
21096;BME280;10706;49.036;12.112;2023-05-14T03:51:58;97656.91;;;8.37;99.62
21096;BME280;10706;49.036;12.112;2023-05-14T03:54:24;97656.41;;;8.29;98.23
21096;BME280;10706;49.036;12.112;2023-05-14T03:56:50;97659.06;;;8.29;99.95
21096;BME280;10706;49.036;12.112;2023-05-14T03:59:16;97660.22;;;8.33;98.38
21096;BME280;10706;49.036;12.112;2023-05-14T04:01:43;97663.22;;;8.43;98.72
21096;BME280;10706;49.036;12.112;2023-05-14T04:04:09;97661.53;;;8.49;96.89
21096;BME280;10706;49.036;12.112;2023-05-14T04:06:35;97657.28;;;8.41;98.50
21096;BME280;10706;49.036;12.112;2023-05-14T04:09:02;97647.66;;;8.40;97.99
21096;BME280;10706;49.036;12.112;2023-05-14T04:11:28;97654.03;;;8.21;99.11
21096;BME280;10706;49.036;12.112;2023-05-14T04:13:54;97654.09;;;8.14;99.10
21096;BME280;10706;49.036;12.112;2023-05-14T04:16:20;97651.81;;;8.17;100.00
21096;BME280;10706;49.036;12.112;2023-05-14T04:18:45;97652.63;;;8.18;99.52
21096;BME280;10706;49.036;12.112;2023-05-14T04:21:11;97654.41;;;8.24;100.00
21096;BME280;10706;49.036;12.112;2023-05-14T04:23:37;97646.19;;;8.26;99.94
21096;BME280;10706;49.036;12.112;2023-05-14T04:26:03;97638.47;;;8.24;99.51
21096;BME280;10706;49.036;12.112;2023-05-14T04:28:29;97643.09;;;8.29;99.74
21096;BME280;10706;49.036;12.112;2023-05-14T04:30:55;97645.16;;;8.27;99.62
21096;BME280;10706;49.036;12.112;2023-05-14T04:33:21;97644.50;;;8.31;99.72
21096;BME280;10706;49.036;12.112;2023-05-14T04:35:47;97651.38;;;8.39;98.96
21096;BME280;10706;49.036;12.112;2023-05-14T04:38:13;97651.22;;;8.34;99.15
21096;BME280;10706;49.036;12.112;2023-05-14T04:40:39;97649.16;;;8.36;100.00
21096;BME280;10706;49.036;12.112;2023-05-14T04:43:06;97648.72;;;8.39;98.69
21096;BME280;10706;49.036;12.112;2023-05-14T04:45:32;97645.03;;;8.59;98.38
21096;BME280;10706;49.036;12.112;2023-05-14T04:47:58;97649.53;;;8.58;99.09
21096;BME280;10706;49.036;12.112;2023-05-14T04:50:24;97642.38;;;8.59;98.57
21096;BME280;10706;49.036;12.112;2023-05-14T04:52:50;97646.66;;;8.60;98.98
21096;BME280;10706;49.036;12.112;2023-05-14T04:55:16;97648.78;;;8.69;98.84
21096;BME280;10706;49.036;12.112;2023-05-14T04:57:42;97645.56;;;8.79;98.20
21096;BME280;10706;49.036;12.112;2023-05-14T05:00:08;97645.97;;;8.94;96.84
21096;BME280;10706;49.036;12.112;2023-05-14T05:02:34;97655.13;;;8.99;96.07
21096;BME280;10706;49.036;12.112;2023-05-14T05:05:00;97654.13;;;9.11;96.66
21096;BME280;10706;49.036;12.112;2023-05-14T05:07:26;97644.84;;;9.14;96.49
21096;BME280;10706;49.036;12.112;2023-05-14T05:09:52;97648.16;;;9.28;95.91
21096;BME280;10706;49.036;12.112;2023-05-14T05:12:18;97651.63;;;9.40;95.30
21096;BME280;10706;49.036;12.112;2023-05-14T05:14:44;97650.72;;;9.46;95.03
21096;BME280;10706;49.036;12.112;2023-05-14T05:17:09;97658.38;;;9.54;93.99
21096;BME280;10706;49.036;12.112;2023-05-14T05:19:35;97650.38;;;9.66;94.83
21096;BME280;10706;49.036;12.112;2023-05-14T05:22:01;97655.03;;;9.83;93.62
21096;BME280;10706;49.036;12.112;2023-05-14T05:24:26;97644.22;;;10.13;91.88
21096;BME280;10706;49.036;12.112;2023-05-14T05:26:52;97641.53;;;10.25;90.06
21096;BME280;10706;49.036;12.112;2023-05-14T05:29:21;97643.63;;;10.35;89.44
21096;BME280;10706;49.036;12.112;2023-05-14T05:31:47;97641.84;;;10.52;87.97
21096;BME280;10706;49.036;12.112;2023-05-14T05:34:13;97652.41;;;10.59;88.24
21096;BME280;10706;49.036;12.112;2023-05-14T05:36:39;97638.31;;;10.63;89.03
21096;BME280;10706;49.036;12.112;2023-05-14T05:39:05;97640.47;;;10.78;88.57
21096;BME280;10706;49.036;12.112;2023-05-14T05:41:31;97635.91;;;10.91;86.64
21096;BME280;10706;49.036;12.112;2023-05-14T05:43:57;97635.03;;;11.02;86.75
21096;BME280;10706;49.036;12.112;2023-05-14T05:46:23;97642.66;;;11.10;85.46
21096;BME280;10706;49.036;12.112;2023-05-14T05:48:48;97640.47;;;11.41;83.96
21096;BME280;10706;49.036;12.112;2023-05-14T05:51:14;97635.78;;;11.48;83.45
21096;BME280;10706;49.036;12.112;2023-05-14T05:53:40;97641.88;;;11.60;82.51
21096;BME280;10706;49.036;12.112;2023-05-14T05:56:06;97635.44;;;11.78;81.78
21096;BME280;10706;49.036;12.112;2023-05-14T05:58:32;97635.06;;;11.70;81.56
21096;BME280;10706;49.036;12.112;2023-05-14T06:00:58;97634.94;;;11.81;81.40
21096;BME280;10706;49.036;12.112;2023-05-14T06:03:24;97644.41;;;11.89;80.12
21096;BME280;10706;49.036;12.112;2023-05-14T06:05:50;97636.75;;;11.93;79.97
21096;BME280;10706;49.036;12.112;2023-05-14T06:08:17;97640.44;;;12.09;80.16
21096;BME280;10706;49.036;12.112;2023-05-14T06:10:43;97634.84;;;12.10;79.71
21096;BME280;10706;49.036;12.112;2023-05-14T06:13:09;97645.25;;;12.29;78.88
21096;BME280;10706;49.036;12.112;2023-05-14T06:15:35;97637.38;;;12.39;79.82
21096;BME280;10706;49.036;12.112;2023-05-14T06:18:00;97637.53;;;12.54;78.90
21096;BME280;10706;49.036;12.112;2023-05-14T06:20:26;97631.34;;;12.76;78.42
21096;BME280;10706;49.036;12.112;2023-05-14T06:22:52;97639.28;;;12.93;76.66
21096;BME280;10706;49.036;12.112;2023-05-14T06:25:18;97638.31;;;13.04;76.45
21096;BME280;10706;49.036;12.112;2023-05-14T06:27:44;97636.09;;;12.96;76.27
21096;BME280;10706;49.036;12.112;2023-05-14T06:30:10;97638.97;;;12.89;75.27
21096;BME280;10706;49.036;12.112;2023-05-14T06:32:36;97642.72;;;12.88;74.84
21096;BME280;10706;49.036;12.112;2023-05-14T06:35:02;97642.13;;;12.81;77.10
21096;BME280;10706;49.036;12.112;2023-05-14T06:37:28;97643.28;;;12.90;76.41
21096;BME280;10706;49.036;12.112;2023-05-14T06:39:54;97641.66;;;12.89;75.92
21096;BME280;10706;49.036;12.112;2023-05-14T06:42:20;97632.88;;;12.94;75.16
21096;BME280;10706;49.036;12.112;2023-05-14T06:44:46;97641.25;;;13.02;76.57
21096;BME280;10706;49.036;12.112;2023-05-14T06:47:11;97641.31;;;13.35;75.18
21096;BME280;10706;49.036;12.112;2023-05-14T06:49:38;97643.13;;;13.61;73.94
21096;BME280;10706;49.036;12.112;2023-05-14T06:52:04;97640.59;;;13.82;73.31
21096;BME280;10706;49.036;12.112;2023-05-14T06:54:30;97643.25;;;14.19;70.34
21096;BME280;10706;49.036;12.112;2023-05-14T06:56:56;97634.09;;;14.20;70.90
21096;BME280;10706;49.036;12.112;2023-05-14T06:59:22;97631.69;;;14.24;70.77
21096;BME280;10706;49.036;12.112;2023-05-14T07:01:48;97639.91;;;14.55;71.00
21096;BME280;10706;49.036;12.112;2023-05-14T07:04:14;97641.88;;;14.70;71.63
21096;BME280;10706;49.036;12.112;2023-05-14T07:06:40;97639.75;;;14.87;70.72
21096;BME280;10706;49.036;12.112;2023-05-14T07:09:05;97636.53;;;14.95;67.15
21096;BME280;10706;49.036;12.112;2023-05-14T07:11:32;97639.00;;;15.18;67.72
21096;BME280;10706;49.036;12.112;2023-05-14T07:13:58;97636.59;;;15.26;67.98
21096;BME280;10706;49.036;12.112;2023-05-14T07:16:25;97637.66;;;15.20;67.91
21096;BME280;10706;49.036;12.112;2023-05-14T07:18:50;97640.00;;;14.75;63.97
21096;BME280;10706;49.036;12.112;2023-05-14T07:21:16;97637.88;;;14.77;63.89
21096;BME280;10706;49.036;12.112;2023-05-14T07:23:42;97632.56;;;15.29;64.39
21096;BME280;10706;49.036;12.112;2023-05-14T07:26:08;97638.97;;;16.10;64.26
21096;BME280;10706;49.036;12.112;2023-05-14T07:28:34;97631.75;;;16.70;61.25
21096;BME280;10706;49.036;12.112;2023-05-14T07:31:00;97620.09;;;16.85;60.98
21096;BME280;10706;49.036;12.112;2023-05-14T07:33:26;97627.22;;;17.16;57.88
21096;BME280;10706;49.036;12.112;2023-05-14T07:35:52;97618.13;;;17.36;55.03
21096;BME280;10706;49.036;12.112;2023-05-14T07:38:19;97628.16;;;17.30;54.76
21096;BME280;10706;49.036;12.112;2023-05-14T07:40:45;97627.50;;;17.09;54.22
21096;BME280;10706;49.036;12.112;2023-05-14T07:43:11;97631.19;;;16.68;54.97
21096;BME280;10706;49.036;12.112;2023-05-14T07:45:37;97626.91;;;15.87;56.23
21096;BME280;10706;49.036;12.112;2023-05-14T07:48:05;97627.97;;;15.91;58.97
21096;BME280;10706;49.036;12.112;2023-05-14T07:50:31;97627.72;;;15.87;58.11
21096;BME280;10706;49.036;12.112;2023-05-14T07:52:57;97629.34;;;15.93;58.92
21096;BME280;10706;49.036;12.112;2023-05-14T07:55:22;97628.78;;;15.91;60.99
21096;BME280;10706;49.036;12.112;2023-05-14T07:57:48;97618.84;;;15.15;59.64
21096;BME280;10706;49.036;12.112;2023-05-14T08:00:14;97621.81;;;15.19;60.77
21096;BME280;10706;49.036;12.112;2023-05-14T08:02:41;97623.97;;;15.47;62.57
21096;BME280;10706;49.036;12.112;2023-05-14T08:05:08;97619.34;;;15.68;61.46
21096;BME280;10706;49.036;12.112;2023-05-14T08:07:34;97608.59;;;15.84;58.89
21096;BME280;10706;49.036;12.112;2023-05-14T08:10:00;97607.00;;;15.26;59.58
21096;BME280;10706;49.036;12.112;2023-05-14T08:12:26;97605.13;;;15.27;60.15
21096;BME280;10706;49.036;12.112;2023-05-14T08:14:57;97605.13;;;15.52;62.92
21096;BME280;10706;49.036;12.112;2023-05-14T08:17:23;97597.56;;;15.85;63.41
21096;BME280;10706;49.036;12.112;2023-05-14T08:19:49;97594.06;;;15.74;58.93
21096;BME280;10706;49.036;12.112;2023-05-14T08:22:15;97588.94;;;15.88;60.88
21096;BME280;10706;49.036;12.112;2023-05-14T08:24:41;97591.59;;;16.09;60.86
21096;BME280;10706;49.036;12.112;2023-05-14T08:27:08;97588.09;;;16.03;59.92
21096;BME280;10706;49.036;12.112;2023-05-14T08:29:34;97592.28;;;16.35;59.40
21096;BME280;10706;49.036;12.112;2023-05-14T08:32:00;97587.28;;;16.03;58.91
21096;BME280;10706;49.036;12.112;2023-05-14T08:34:25;97586.94;;;16.25;59.47
21096;BME280;10706;49.036;12.112;2023-05-14T08:36:52;97581.41;;;16.56;58.28
21096;BME280;10706;49.036;12.112;2023-05-14T08:39:18;97575.31;;;16.35;56.41
21096;BME280;10706;49.036;12.112;2023-05-14T08:41:44;97571.97;;;16.53;56.30
21096;BME280;10706;49.036;12.112;2023-05-14T08:44:17;97570.13;;;16.54;58.30
21096;BME280;10706;49.036;12.112;2023-05-14T08:46:43;97559.78;;;16.66;56.25
21096;BME280;10706;49.036;12.112;2023-05-14T08:49:21;97562.19;;;16.67;57.34
21096;BME280;10706;49.036;12.112;2023-05-14T08:51:49;97564.63;;;16.69;55.92
21096;BME280;10706;49.036;12.112;2023-05-14T08:54:16;97555.72;;;16.68;57.38
21096;BME280;10706;49.036;12.112;2023-05-14T08:56:45;97555.69;;;16.74;54.91
21096;BME280;10706;49.036;12.112;2023-05-14T08:59:15;97556.38;;;16.95;58.66
21096;BME280;10706;49.036;12.112;2023-05-14T09:01:53;97560.53;;;17.16;57.55
21096;BME280;10706;49.036;12.112;2023-05-14T09:04:55;97552.53;;;17.06;58.15
21096;BME280;10706;49.036;12.112;2023-05-14T09:07:49;97545.75;;;17.14;56.38
21096;BME280;10706;49.036;12.112;2023-05-14T09:10:18;97546.00;;;16.73;57.83
21096;BME280;10706;49.036;12.112;2023-05-14T09:12:48;97539.69;;;16.93;56.09
21096;BME280;10706;49.036;12.112;2023-05-14T09:15:46;97534.53;;;16.96;58.31
21096;BME280;10706;49.036;12.112;2023-05-14T09:18:19;97535.91;;;16.94;55.54
21096;BME280;10706;49.036;12.112;2023-05-14T09:20:46;97542.19;;;17.18;55.23
21096;BME280;10706;49.036;12.112;2023-05-14T09:23:15;97536.97;;;17.56;54.77
21096;BME280;10706;49.036;12.112;2023-05-14T09:26:06;97535.66;;;17.24;56.08
21096;BME280;10706;49.036;12.112;2023-05-14T09:28:32;97536.50;;;17.49;54.42
21096;BME280;10706;49.036;12.112;2023-05-14T09:31:01;97540.41;;;18.15;55.11
21096;BME280;10706;49.036;12.112;2023-05-14T09:33:28;97536.56;;;17.68;55.55
21096;BME280;10706;49.036;12.112;2023-05-14T09:35:58;97536.22;;;18.04;56.83
21096;BME280;10706;49.036;12.112;2023-05-14T09:44:46;97532.56;;;18.95;49.70
21096;BME280;10706;49.036;12.112;2023-05-14T09:47:17;97520.44;;;18.92;51.21
21096;BME280;10706;49.036;12.112;2023-05-14T09:52:45;97529.13;;;19.55;50.34
21096;BME280;10706;49.036;12.112;2023-05-14T09:58:34;97525.97;;;19.94;48.12
21096;BME280;10706;49.036;12.112;2023-05-14T10:10:22;97505.50;;;18.95;50.11
21096;BME280;10706;49.036;12.112;2023-05-14T10:20:17;97509.59;;;18.35;50.65
21096;BME280;10706;49.036;12.112;2023-05-14T10:22:44;97507.28;;;17.80;52.63
21096;BME280;10706;49.036;12.112;2023-05-14T10:25:11;97501.16;;;17.45;53.70
21096;BME280;10706;49.036;12.112;2023-05-14T10:27:37;97505.44;;;17.52;54.59
21096;BME280;10706;49.036;12.112;2023-05-14T10:30:09;97499.00;;;17.47;52.84
21096;BME280;10706;49.036;12.112;2023-05-14T10:32:39;97496.47;;;17.56;53.23
21096;BME280;10706;49.036;12.112;2023-05-14T10:35:18;97498.16;;;17.76;54.14
21096;BME280;10706;49.036;12.112;2023-05-14T10:37:45;97491.25;;;18.13;52.88
21096;BME280;10706;49.036;12.112;2023-05-14T10:47:15;97484.94;;;18.75;52.48
21096;BME280;10706;49.036;12.112;2023-05-14T10:49:45;97490.63;;;19.58;50.60
21096;BME280;10706;49.036;12.112;2023-05-14T10:52:18;97486.81;;;20.14;46.53
21096;BME280;10706;49.036;12.112;2023-05-14T10:54:59;97478.47;;;19.69;47.98
21096;BME280;10706;49.036;12.112;2023-05-14T10:57:27;97480.69;;;19.07;50.35
21096;BME280;10706;49.036;12.112;2023-05-14T11:05:06;97479.44;;;18.85;51.48
21096;BME280;10706;49.036;12.112;2023-05-14T11:07:41;97475.66;;;19.00;50.12
21096;BME280;10706;49.036;12.112;2023-05-14T11:11:07;97474.34;;;19.30;49.45
21096;BME280;10706;49.036;12.112;2023-05-14T11:14:06;97464.63;;;18.96;50.72
21096;BME280;10706;49.036;12.112;2023-05-14T11:16:38;97465.66;;;19.14;49.34
21096;BME280;10706;49.036;12.112;2023-05-14T11:19:14;97461.88;;;19.15;48.97
21096;BME280;10706;49.036;12.112;2023-05-14T11:21:42;97458.38;;;18.63;51.21
21096;BME280;10706;49.036;12.112;2023-05-14T11:24:08;97461.44;;;18.75;51.77
21096;BME280;10706;49.036;12.112;2023-05-14T11:26:34;97455.03;;;19.04;50.37
21096;BME280;10706;49.036;12.112;2023-05-14T11:29:00;97452.09;;;19.33;52.58
21096;BME280;10706;49.036;12.112;2023-05-14T11:31:27;97448.28;;;19.62;49.66
21096;BME280;10706;49.036;12.112;2023-05-14T11:33:53;97452.41;;;19.73;48.96
21096;BME280;10706;49.036;12.112;2023-05-14T11:36:19;97446.09;;;19.78;47.01
21096;BME280;10706;49.036;12.112;2023-05-14T11:51:47;97431.00;;;19.44;48.72
21096;BME280;10706;49.036;12.112;2023-05-14T11:55:21;97428.56;;;17.92;55.19
21096;BME280;10706;49.036;12.112;2023-05-14T11:57:47;97432.09;;;17.93;52.56
21096;BME280;10706;49.036;12.112;2023-05-14T12:00:19;97430.88;;;17.80;53.55
21096;BME280;10706;49.036;12.112;2023-05-14T12:03:17;97424.22;;;17.96;53.58
21096;BME280;10706;49.036;12.112;2023-05-14T12:06:20;97416.47;;;18.09;55.30
21096;BME280;10706;49.036;12.112;2023-05-14T12:23:14;97395.19;;;16.86;63.64
21096;BME280;10706;49.036;12.112;2023-05-14T12:25:50;97395.72;;;17.61;59.31
21096;BME280;10706;49.036;12.112;2023-05-14T12:28:22;97393.84;;;18.56;58.63
21096;BME280;10706;49.036;12.112;2023-05-14T12:41:46;97373.41;;;24.23;37.91
21096;BME280;10706;49.036;12.112;2023-05-14T12:44:51;97370.19;;;24.96;36.60
21096;BME280;10706;49.036;12.112;2023-05-14T12:47:17;97359.78;;;24.77;39.41
21096;BME280;10706;49.036;12.112;2023-05-14T12:49:54;97361.94;;;25.79;38.18
21096;BME280;10706;49.036;12.112;2023-05-14T12:52:20;97353.50;;;25.35;34.49
21096;BME280;10706;49.036;12.112;2023-05-14T12:54:46;97350.94;;;25.91;34.21
21096;BME280;10706;49.036;12.112;2023-05-14T12:57:12;97349.84;;;25.92;33.27
21096;BME280;10706;49.036;12.112;2023-05-14T12:59:38;97343.50;;;24.69;36.12
21096;BME280;10706;49.036;12.112;2023-05-14T13:02:04;97344.88;;;22.63;40.44
21096;BME280;10706;49.036;12.112;2023-05-14T13:04:30;97354.94;;;21.66;43.20
21096;BME280;10706;49.036;12.112;2023-05-14T13:06:57;97344.66;;;21.46;44.11
21096;BME280;10706;49.036;12.112;2023-05-14T13:09:23;97352.13;;;21.40;43.72
21096;BME280;10706;49.036;12.112;2023-05-14T13:11:49;97342.81;;;22.25;41.71
21096;BME280;10706;49.036;12.112;2023-05-14T13:14:15;97343.28;;;22.53;40.38
21096;BME280;10706;49.036;12.112;2023-05-14T13:16:41;97335.78;;;22.41;40.03
21096;BME280;10706;49.036;12.112;2023-05-14T13:19:10;97337.72;;;21.40;42.88
21096;BME280;10706;49.036;12.112;2023-05-14T13:21:42;97338.78;;;20.81;44.43
21096;BME280;10706;49.036;12.112;2023-05-14T13:24:08;97345.19;;;19.95;48.09
21096;BME280;10706;49.036;12.112;2023-05-14T13:26:36;97343.56;;;19.43;51.64
21096;BME280;10706;49.036;12.112;2023-05-14T13:29:02;97363.59;;;18.21;62.11
21096;BME280;10706;49.036;12.112;2023-05-14T13:31:28;97365.56;;;17.54;66.90
21096;BME280;10706;49.036;12.112;2023-05-14T13:33:54;97361.22;;;16.51;71.67
21096;BME280;10706;49.036;12.112;2023-05-14T13:36:22;97365.91;;;16.01;76.31
21096;BME280;10706;49.036;12.112;2023-05-14T13:38:48;97367.69;;;15.76;78.91
21096;BME280;10706;49.036;12.112;2023-05-14T13:41:14;97359.91;;;15.64;79.96
21096;BME280;10706;49.036;12.112;2023-05-14T13:43:40;97359.16;;;15.48;81.70
21096;BME280;10706;49.036;12.112;2023-05-14T13:46:06;97356.59;;;15.23;83.32
21096;BME280;10706;49.036;12.112;2023-05-14T13:48:32;97361.50;;;15.00;83.17
21096;BME280;10706;49.036;12.112;2023-05-14T13:51:01;97362.88;;;14.77;85.23
21096;BME280;10706;49.036;12.112;2023-05-14T13:54:12;97369.88;;;14.52;87.92
21096;BME280;10706;49.036;12.112;2023-05-14T13:57:05;97371.47;;;14.02;85.87
21096;BME280;10706;49.036;12.112;2023-05-14T13:59:52;97373.81;;;13.73;87.41
21096;BME280;10706;49.036;12.112;2023-05-14T14:02:20;97370.84;;;13.59;87.61
21096;BME280;10706;49.036;12.112;2023-05-14T14:05:00;97370.81;;;13.54;86.06
21096;BME280;10706;49.036;12.112;2023-05-14T14:07:31;97371.81;;;13.37;87.88
21096;BME280;10706;49.036;12.112;2023-05-14T14:13:47;97379.56;;;13.34;87.08
21096;BME280;10706;49.036;12.112;2023-05-14T14:16:13;97374.53;;;13.43;89.04
21096;BME280;10706;49.036;12.112;2023-05-14T14:18:39;97385.00;;;13.49;89.63
21096;BME280;10706;49.036;12.112;2023-05-14T14:21:05;97377.19;;;13.37;89.16
21096;BME280;10706;49.036;12.112;2023-05-14T14:23:31;97386.22;;;13.26;90.27
21096;BME280;10706;49.036;12.112;2023-05-14T14:25:57;97388.09;;;13.26;90.49
21096;BME280;10706;49.036;12.112;2023-05-14T14:28:23;97388.72;;;13.43;88.84